createdAt,value
2023-03-15T00:02:05.994Z,99.90
2023-03-15T00:04:32.998Z,99.90
2023-03-15T00:06:59.740Z,99.90
2023-03-15T00:09:26.762Z,99.90
2023-03-15T00:11:56.474Z,99.90
2023-03-15T00:14:23.455Z,99.90
2023-03-15T00:16:50.471Z,99.90
2023-03-15T00:19:17.245Z,99.90
2023-03-15T00:21:44.495Z,99.90
2023-03-15T00:24:11.627Z,99.90
2023-03-15T00:31:33.370Z,99.90
2023-03-15T00:34:00.700Z,99.90
2023-03-15T00:36:27.667Z,99.90
2023-03-15T00:41:25.680Z,99.90
2023-03-15T00:43:52.654Z,99.90
2023-03-15T00:48:51.469Z,99.90
2023-03-15T00:51:23.688Z,99.90
2023-03-15T00:53:53.176Z,99.90
2023-03-15T00:56:25.544Z,99.90
2023-03-15T00:58:55.700Z,99.90
2023-03-15T01:01:28.381Z,99.90
2023-03-15T01:03:55.796Z,99.90
2023-03-15T01:06:28.633Z,99.90
2023-03-15T01:08:56.744Z,99.90
2023-03-15T01:11:26.963Z,99.90
2023-03-15T01:13:55.844Z,99.90
2023-03-15T01:16:22.695Z,99.90
2023-03-15T01:18:52.878Z,99.90
2023-03-15T01:21:21.154Z,99.90
2023-03-15T01:23:47.978Z,99.90
2023-03-15T01:26:16.288Z,99.90
2023-03-15T01:28:43.716Z,99.90
2023-03-15T01:31:19.114Z,99.90
2023-03-15T01:33:46.290Z,99.90
2023-03-15T01:36:13.528Z,99.90
2023-03-15T01:38:40.430Z,99.90
2023-03-15T01:41:09.712Z,99.90
2023-03-15T01:43:36.586Z,99.90
2023-03-15T01:46:19.267Z,99.90
2023-03-15T01:49:09.573Z,99.90
2023-03-15T01:51:43.898Z,99.90
2023-03-15T01:54:15.261Z,99.90
2023-03-15T01:56:46.528Z,99.90
2023-03-15T01:59:19.181Z,99.90
2023-03-15T02:01:50.336Z,99.90
2023-03-15T02:04:24.956Z,99.90
2023-03-15T02:06:59.408Z,99.90
2023-03-15T02:10:09.959Z,1.00
2023-03-15T02:12:46.270Z,1.00
2023-03-15T02:15:15.643Z,1.00
2023-03-15T02:17:45.088Z,99.90
2023-03-15T02:20:27.327Z,1.00
2023-03-15T02:23:19.323Z,1.00
2023-03-15T02:26:04.078Z,99.90
2023-03-15T02:28:33.725Z,1.00
2023-03-15T02:31:00.810Z,92.60
2023-03-15T02:33:32.698Z,1.00
2023-03-15T02:36:21.709Z,1.00
2023-03-15T02:38:52.176Z,1.00
2023-03-15T02:41:24.711Z,1.00
2023-03-15T02:43:56.368Z,99.90
2023-03-15T02:46:23.751Z,99.90
2023-03-15T02:48:54.137Z,1.00
2023-03-15T02:51:24.230Z,1.00
2023-03-15T02:53:50.988Z,1.00
2023-03-15T02:56:17.871Z,1.00
2023-03-15T02:58:48.003Z,1.00
2023-03-15T03:01:16.237Z,1.00
2023-03-15T03:03:45.257Z,99.90
2023-03-15T03:06:13.684Z,99.90
2023-03-15T03:08:40.684Z,99.90
2023-03-15T03:11:07.446Z,99.90
2023-03-15T03:13:34.181Z,1.00
2023-03-15T03:16:00.949Z,1.00
2023-03-15T03:18:29.300Z,99.90
2023-03-15T03:20:58.065Z,99.90
2023-03-15T03:23:27.792Z,99.90
2023-03-15T03:25:55.414Z,1.00
2023-03-15T03:28:24.280Z,1.00
2023-03-15T03:30:52.449Z,1.00
2023-03-15T03:33:19.851Z,1.00
2023-03-15T03:35:50.024Z,1.00
2023-03-15T03:38:28.603Z,1.00
2023-03-15T03:40:55.368Z,1.00
2023-03-15T03:43:22.273Z,1.00
2023-03-15T03:45:49.125Z,1.00
2023-03-15T03:48:15.943Z,1.00
2023-03-15T03:50:42.692Z,1.00
2023-03-15T03:53:09.418Z,1.00
2023-03-15T03:55:38.020Z,1.00
2023-03-15T03:58:06.784Z,1.00
2023-03-15T04:00:33.522Z,1.00
2023-03-15T04:03:02.035Z,1.00
2023-03-15T04:05:29.542Z,1.00
2023-03-15T04:07:56.267Z,1.80
2023-03-15T04:10:29.700Z,7.50
2023-03-15T04:12:57.197Z,1.00
2023-03-15T04:15:24.785Z,1.00
2023-03-15T04:17:55.856Z,84.60
2023-03-15T04:20:25.993Z,40.40
2023-03-15T04:22:53.455Z,1.00
2023-03-15T04:25:21.063Z,1.00
2023-03-15T04:28:00.981Z,1.00
2023-03-15T04:30:31.127Z,1.00
2023-03-15T04:33:05.762Z,1.00
2023-03-15T04:35:34.380Z,7.20
2023-03-15T04:38:01.886Z,1.00
2023-03-15T04:40:28.674Z,1.00
2023-03-15T04:42:56.025Z,1.00
2023-03-15T04:45:27.048Z,1.00
2023-03-15T04:48:00.298Z,1.00
2023-03-15T04:50:27.758Z,1.00
2023-03-15T04:52:55.180Z,1.00
2023-03-15T04:55:21.908Z,1.00
2023-03-15T04:57:51.324Z,50.90
2023-03-15T05:00:18.563Z,13.10
2023-03-15T05:02:47.551Z,1.00
2023-03-15T05:05:16.605Z,1.00
2023-03-15T05:07:43.305Z,1.00
2023-03-15T05:10:11.978Z,1.00
2023-03-15T05:12:38.984Z,1.00
2023-03-15T05:15:06.545Z,1.00
2023-03-15T05:17:33.753Z,1.00
2023-03-15T05:20:10.676Z,1.00
2023-03-15T05:22:38.029Z,1.00
2023-03-15T05:25:07.840Z,1.00
2023-03-15T05:27:38.286Z,1.00
2023-03-15T05:30:06.206Z,1.00
2023-03-15T05:32:39.584Z,99.90
2023-03-15T05:35:07.909Z,99.90
2023-03-15T05:37:35.685Z,99.90
2023-03-15T05:40:03.022Z,80.10
2023-03-15T05:42:29.866Z,1.00
2023-03-15T05:44:57.340Z,1.00
2023-03-15T05:47:24.304Z,1.00
2023-03-15T05:49:52.274Z,1.00
2023-03-15T05:52:18.981Z,99.90
2023-03-15T05:54:45.653Z,99.90
2023-03-15T05:57:12.373Z,99.90
2023-03-15T05:59:39.143Z,3.40
2023-03-15T06:02:06.125Z,1.00
2023-03-15T06:04:41.133Z,1.00
2023-03-15T06:07:08.099Z,99.90
2023-03-15T06:09:34.952Z,99.90
2023-03-15T06:12:01.691Z,26.10
2023-03-15T06:14:28.632Z,1.00
2023-03-15T06:16:55.826Z,1.00
2023-03-15T06:19:25.725Z,1.00
2023-03-15T06:21:52.444Z,99.90
2023-03-15T06:24:25.181Z,99.90
2023-03-15T06:26:54.699Z,99.90
2023-03-15T06:29:21.987Z,1.00
2023-03-15T06:31:55.031Z,99.90
2023-03-15T06:34:22.246Z,99.90
2023-03-15T06:36:52.611Z,65.40
2023-03-15T06:39:19.559Z,1.00
2023-03-15T06:41:53.395Z,1.00
2023-03-15T06:44:20.519Z,1.00
2023-03-15T06:46:47.237Z,1.00
2023-03-15T06:49:14.005Z,1.00
2023-03-15T06:51:42.517Z,1.00
2023-03-15T06:54:12.518Z,99.90
2023-03-15T06:56:39.796Z,99.90
2023-03-15T06:59:09.552Z,99.90
2023-03-15T07:01:36.334Z,99.90
2023-03-15T07:04:03.247Z,72.60
2023-03-15T07:06:30.199Z,1.00
2023-03-15T07:08:56.925Z,1.00
2023-03-15T07:11:23.681Z,1.00
2023-03-15T07:13:50.650Z,99.90
2023-03-15T07:16:17.424Z,99.90
2023-03-15T07:18:44.318Z,99.90
2023-03-15T07:21:11.121Z,99.90
2023-03-15T07:23:37.904Z,99.90
2023-03-15T07:26:04.935Z,1.00
2023-03-15T07:28:34.720Z,1.00
2023-03-15T07:31:03.897Z,1.00
2023-03-15T07:33:32.310Z,99.90
2023-03-15T07:36:00.010Z,99.90
2023-03-15T07:38:28.935Z,99.90
2023-03-15T07:40:57.306Z,99.90
2023-03-15T07:43:26.885Z,99.90
2023-03-15T07:45:53.705Z,80.00
2023-03-15T07:48:20.745Z,1.00
2023-03-15T07:50:47.490Z,1.00
2023-03-15T07:53:14.206Z,1.00
2023-03-15T07:55:40.968Z,1.00
2023-03-15T07:58:07.706Z,1.00
2023-03-15T08:00:37.104Z,1.00
2023-03-15T08:03:05.536Z,1.00
2023-03-15T08:05:32.369Z,1.00
2023-03-15T08:07:59.511Z,1.00
2023-03-15T08:10:26.676Z,1.00
2023-03-15T08:12:53.503Z,1.00
2023-03-15T08:15:20.889Z,1.00
2023-03-15T08:17:48.485Z,1.00
2023-03-15T08:20:21.672Z,1.00
2023-03-15T08:22:54.666Z,1.00
2023-03-15T08:25:24.161Z,1.00
2023-03-15T08:27:51.997Z,1.00
2023-03-15T08:30:20.914Z,1.00
2023-03-15T08:32:49.238Z,1.00
2023-03-15T08:35:17.542Z,1.00
2023-03-15T08:37:47.748Z,1.00
2023-03-15T08:40:26.566Z,1.00
2023-03-15T08:42:54.083Z,1.00
2023-03-15T08:45:21.934Z,1.00
2023-03-15T08:47:48.770Z,1.00
2023-03-15T08:50:16.688Z,1.00
2023-03-15T08:52:43.909Z,1.00
2023-03-15T08:55:14.437Z,1.00
2023-03-15T08:57:42.399Z,1.00
2023-03-15T09:00:23.440Z,1.00
2023-03-15T09:02:51.999Z,1.00
2023-03-15T09:05:19.898Z,1.00
2023-03-15T09:07:47.000Z,1.00
2023-03-15T09:12:45.699Z,1.00
2023-03-15T09:15:12.700Z,1.00
2023-03-15T09:17:40.323Z,1.00
2023-03-15T09:20:14.602Z,1.00
2023-03-15T09:22:42.596Z,1.00
2023-03-15T09:25:09.878Z,1.00
2023-03-15T09:27:37.275Z,1.00
2023-03-15T09:30:04.495Z,1.00
2023-03-15T09:32:36.302Z,1.00
2023-03-15T09:35:08.666Z,1.00
2023-03-15T09:37:35.608Z,1.00
2023-03-15T09:40:05.079Z,1.00
2023-03-15T09:42:41.873Z,1.00
2023-03-15T09:45:23.615Z,1.00
2023-03-15T09:48:32.007Z,1.00
2023-03-15T09:51:36.613Z,1.00
2023-03-15T09:54:20.657Z,1.00
2023-03-15T09:56:58.108Z,1.00
2023-03-15T09:59:36.167Z,1.00
2023-03-15T10:02:33.701Z,1.00
2023-03-15T10:05:12.089Z,1.00
2023-03-15T10:07:38.797Z,1.00
2023-03-15T10:10:15.078Z,1.00
2023-03-15T10:12:53.180Z,1.00
2023-03-15T10:15:25.129Z,1.00
2023-03-15T10:18:06.412Z,1.00
2023-03-15T10:20:39.774Z,1.00
2023-03-15T10:23:33.465Z,1.00
2023-03-15T10:26:01.347Z,1.00
2023-03-15T10:28:33.909Z,1.00
2023-03-15T10:31:25.720Z,1.00
2023-03-15T10:33:57.132Z,1.00
2023-03-15T10:36:25.704Z,1.00
2023-03-15T10:39:02.892Z,99.90
2023-03-15T10:41:43.378Z,99.90
2023-03-15T10:44:18.689Z,99.90
2023-03-15T10:47:16.137Z,99.90
2023-03-15T10:49:49.191Z,99.90
2023-03-15T10:52:29.594Z,99.90
2023-03-15T10:55:03.893Z,99.90
2023-03-15T10:57:37.071Z,99.90
2023-03-15T11:00:30.071Z,99.90
2023-03-15T11:03:20.984Z,99.90
2023-03-15T11:18:46.597Z,99.90
2023-03-15T11:21:15.241Z,99.90
2023-03-15T11:23:46.544Z,99.90
2023-03-15T11:26:32.617Z,99.90
2023-03-15T11:29:06.601Z,99.90
2023-03-15T11:31:35.547Z,99.90
2023-03-15T11:34:17.708Z,99.90
2023-03-15T11:36:49.062Z,99.90
2023-03-15T11:39:32.869Z,99.90
2023-03-15T11:42:31.967Z,99.90
2023-03-15T11:45:04.950Z,99.90
2023-03-15T11:47:41.478Z,99.90
2023-03-15T11:58:26.745Z,99.90
2023-03-15T12:01:02.126Z,99.90
2023-03-15T12:03:35.749Z,99.90
2023-03-15T12:06:17.825Z,99.90
2023-03-15T12:08:53.721Z,99.90
2023-03-15T12:11:23.156Z,99.90
2023-03-15T12:14:02.415Z,99.90
2023-03-15T12:16:40.588Z,99.90
2023-03-15T12:19:19.230Z,99.90
2023-03-15T12:21:50.599Z,99.90
2023-03-15T12:24:30.118Z,99.90
2023-03-15T12:27:11.745Z,99.90
2023-03-15T12:29:38.450Z,99.90
2023-03-15T12:32:14.694Z,99.90
2023-03-15T12:35:08.789Z,99.90
2023-03-15T12:37:38.127Z,99.90
2023-03-15T12:40:18.937Z,99.90
2023-03-15T12:42:48.927Z,99.90
2023-03-15T12:45:15.723Z,99.90
2023-03-15T12:47:51.537Z,99.90
2023-03-15T12:50:45.950Z,99.90
2023-03-15T12:53:27.546Z,99.90
2023-03-15T12:56:07.988Z,99.90
2023-03-15T12:58:37.202Z,99.90
2023-03-15T13:01:07.288Z,99.90
2023-03-15T13:03:36.926Z,99.90
2023-03-15T13:06:14.788Z,99.90
2023-03-15T13:08:50.622Z,99.90
2023-03-15T13:11:41.557Z,99.90
2023-03-15T13:14:40.038Z,99.90
2023-03-15T13:17:20.850Z,99.90
2023-03-15T13:19:58.545Z,99.90
2023-03-15T13:22:41.342Z,99.90
2023-03-15T13:25:31.976Z,99.90
2023-03-15T13:28:22.474Z,99.90
2023-03-15T13:30:53.292Z,99.90
2023-03-15T13:33:28.441Z,99.90
2023-03-15T13:36:04.451Z,99.90
2023-03-15T13:38:43.172Z,99.90
2023-03-15T13:41:21.747Z,99.90
2023-03-15T13:43:51.285Z,99.90
2023-03-15T13:46:22.753Z,99.90
2023-03-15T13:48:50.704Z,99.90
2023-03-15T13:51:39.942Z,99.90
2023-03-15T13:54:26.216Z,99.90
2023-03-15T13:57:06.375Z,99.90
2023-03-15T13:59:41.011Z,99.90
2023-03-15T14:02:14.917Z,99.90
2023-03-15T14:04:41.944Z,99.90
2023-03-15T14:07:26.270Z,99.90
2023-03-15T14:10:23.778Z,99.90
2023-03-15T14:12:51.479Z,99.90
2023-03-15T14:15:29.298Z,99.90
2023-03-15T14:18:11.011Z,99.90
2023-03-15T14:20:41.912Z,99.90
2023-03-15T14:23:12.976Z,99.90
2023-03-15T14:25:39.809Z,99.90
2023-03-15T14:28:11.413Z,99.90
2023-03-15T14:30:41.111Z,99.90
2023-03-15T14:33:23.570Z,99.90
2023-03-15T14:35:54.679Z,99.90
2023-03-15T14:38:32.758Z,99.90
2023-03-15T14:41:18.073Z,99.90
2023-03-15T14:43:45.036Z,99.90
2023-03-15T14:46:12.484Z,99.90
2023-03-15T14:48:39.561Z,99.90
2023-03-15T14:51:15.774Z,99.90
2023-03-15T14:53:43.302Z,99.90
2023-03-15T14:56:14.049Z,99.90
2023-03-15T14:58:42.005Z,99.90
2023-03-15T15:01:12.895Z,99.90
2023-03-15T15:03:47.563Z,99.90
2023-03-15T15:06:18.872Z,99.90
2023-03-15T15:08:47.692Z,99.90
2023-03-15T15:11:15.200Z,99.90
2023-03-15T15:13:41.973Z,99.90
2023-03-15T15:16:11.503Z,99.90
2023-03-15T15:18:38.292Z,99.90
2023-03-15T15:21:33.730Z,99.90
2023-03-15T15:24:02.994Z,99.90
2023-03-15T15:26:31.250Z,99.90
2023-03-15T15:28:59.241Z,99.90
2023-03-15T15:31:27.886Z,99.90
2023-03-15T15:33:56.231Z,99.90
2023-03-15T15:36:29.448Z,99.90
2023-03-15T15:38:57.454Z,99.90
2023-03-15T15:41:29.321Z,99.90
2023-03-15T15:43:56.002Z,99.90
2023-03-15T15:46:23.939Z,99.90
2023-03-15T15:48:54.584Z,99.90
2023-03-15T15:51:26.949Z,99.90
2023-03-15T15:53:56.479Z,99.90
2023-03-15T15:56:51.683Z,99.90
2023-03-15T15:59:19.010Z,99.90
2023-03-15T16:01:59.510Z,99.90
2023-03-15T16:04:27.794Z,99.90
2023-03-15T16:06:58.687Z,99.90
2023-03-15T16:09:27.415Z,99.90
2023-03-15T16:11:54.206Z,99.90
2023-03-15T16:14:20.968Z,99.90
2023-03-15T16:16:48.529Z,99.90
2023-03-15T16:19:15.331Z,99.90
2023-03-15T16:21:50.975Z,99.90
2023-03-15T16:24:21.768Z,99.90
2023-03-15T16:26:53.209Z,99.90
2023-03-15T16:29:25.944Z,99.90
2023-03-15T16:31:59.199Z,99.90
2023-03-15T16:34:36.727Z,99.90
2023-03-15T16:37:03.447Z,99.90
2023-03-15T16:39:33.757Z,99.90
2023-03-15T16:42:00.514Z,99.90
2023-03-15T16:44:27.291Z,99.90
2023-03-15T16:46:54.310Z,99.90
2023-03-15T16:49:21.066Z,99.90
2023-03-15T16:51:52.770Z,99.90
2023-03-15T16:54:38.491Z,99.90
2023-03-15T16:57:27.008Z,99.90
2023-03-15T16:59:56.632Z,99.90
2023-03-15T17:02:26.158Z,99.90
2023-03-15T17:04:53.241Z,99.90
2023-03-15T17:07:25.385Z,99.90
2023-03-15T17:09:52.044Z,99.90
2023-03-15T17:12:27.227Z,99.90
2023-03-15T17:14:56.914Z,99.90
2023-03-15T17:17:26.374Z,99.90
2023-03-15T17:19:53.289Z,99.90
2023-03-15T17:22:21.361Z,99.90
2023-03-15T17:24:49.018Z,99.90
2023-03-15T17:27:31.839Z,99.90
2023-03-15T17:29:58.688Z,99.90
2023-03-15T17:34:59.000Z,99.90
2023-03-15T17:37:35.360Z,99.90
2023-03-15T17:40:10.075Z,99.90
2023-03-15T17:42:36.766Z,99.90
2023-03-15T17:45:11.304Z,99.90
2023-03-15T17:47:37.998Z,99.90
2023-03-15T17:50:05.039Z,99.90
2023-03-15T17:52:31.713Z,99.90
2023-03-15T17:55:00.383Z,99.90
2023-03-15T17:57:27.045Z,99.90
2023-03-15T17:59:54.020Z,99.90
2023-03-15T18:02:24.075Z,99.90
2023-03-15T18:04:50.733Z,99.90
2023-03-15T18:07:17.361Z,99.90
2023-03-15T18:09:43.989Z,99.90
2023-03-15T18:12:11.276Z,99.90
2023-03-15T18:14:38.693Z,99.90
2023-03-15T18:17:05.401Z,99.90
2023-03-15T18:19:32.064Z,99.90
2023-03-15T18:21:58.695Z,99.90
2023-03-15T18:24:27.739Z,99.90
2023-03-15T18:26:55.077Z,99.90
2023-03-15T18:29:24.079Z,99.90
2023-03-15T18:31:50.834Z,99.90
2023-03-15T18:34:21.787Z,99.90
2023-03-15T18:36:48.741Z,99.90
2023-03-15T18:39:15.460Z,99.90
2023-03-15T18:41:42.134Z,99.90
2023-03-15T18:44:10.441Z,99.90
2023-03-15T18:46:39.935Z,99.90
2023-03-15T18:49:06.609Z,99.90
2023-03-15T18:51:34.125Z,99.90
2023-03-15T18:54:00.763Z,99.90
2023-03-15T18:56:36.517Z,99.90
2023-03-15T18:59:03.811Z,99.90
2023-03-15T19:01:30.581Z,99.90
2023-03-15T19:03:57.465Z,99.90
2023-03-15T19:06:26.676Z,99.90
2023-03-15T19:08:54.327Z,99.90
2023-03-15T19:11:23.991Z,99.90
2023-03-15T19:13:51.351Z,99.90
2023-03-15T19:16:20.200Z,99.90
2023-03-15T19:18:49.359Z,99.90
2023-03-15T19:21:16.786Z,99.90
2023-03-15T19:23:43.495Z,99.90
2023-03-15T19:26:10.191Z,99.90
2023-03-15T19:28:37.062Z,99.90
2023-03-15T19:31:03.979Z,99.90
2023-03-15T19:33:30.764Z,99.90
2023-03-15T19:35:59.949Z,99.90
2023-03-15T19:38:26.892Z,99.90
2023-03-15T19:40:56.948Z,99.90
2023-03-15T19:43:24.161Z,99.90
2023-03-15T19:45:51.327Z,99.90
2023-03-15T19:48:18.087Z,99.90
2023-03-15T19:50:45.040Z,99.90
2023-03-15T19:53:12.200Z,99.90
2023-03-15T19:55:39.047Z,99.90
2023-03-15T19:58:05.738Z,99.90
2023-03-15T20:00:32.455Z,99.90
2023-03-15T20:02:59.106Z,99.90
2023-03-15T20:05:27.498Z,99.90
2023-03-15T20:07:54.374Z,99.90
2023-03-15T20:10:21.972Z,99.90
2023-03-15T20:12:49.071Z,99.90
2023-03-15T20:15:19.096Z,99.90
2023-03-15T20:17:46.013Z,99.90
2023-03-15T20:20:18.402Z,99.90
2023-03-15T20:22:45.819Z,99.90
2023-03-15T20:25:17.535Z,99.90
2023-03-15T20:27:44.652Z,99.90
2023-03-15T20:30:14.639Z,1.00
2023-03-15T20:32:42.464Z,1.00
2023-03-15T20:35:10.226Z,1.00
2023-03-15T20:37:40.292Z,1.00
2023-03-15T20:40:09.414Z,1.00
2023-03-15T20:42:36.378Z,1.00
2023-03-15T20:45:09.557Z,1.00
2023-03-15T20:47:37.961Z,1.00
2023-03-15T20:50:07.160Z,1.00
2023-03-15T20:52:34.281Z,1.00
2023-03-15T20:55:01.415Z,1.00
2023-03-15T20:57:28.384Z,1.00
2023-03-15T20:59:55.081Z,1.00
2023-03-15T21:02:22.489Z,1.00
2023-03-15T21:04:49.353Z,1.00
2023-03-15T21:07:16.124Z,1.00
2023-03-15T21:09:42.832Z,1.00
2023-03-15T21:12:09.633Z,1.00
2023-03-15T21:14:39.328Z,1.00
2023-03-15T21:17:06.055Z,1.00
2023-03-15T21:19:32.692Z,1.00
2023-03-15T21:22:00.804Z,1.00
2023-03-15T21:24:31.931Z,1.00
2023-03-15T21:26:58.988Z,1.00
2023-03-15T21:29:28.044Z,1.00
2023-03-15T21:31:59.067Z,1.00
2023-03-15T21:34:25.889Z,1.00
2023-03-15T21:36:55.306Z,1.00
2023-03-15T21:39:22.390Z,1.00
2023-03-15T21:41:49.228Z,1.00
2023-03-15T21:44:15.970Z,1.00
2023-03-15T21:46:42.750Z,1.00
2023-03-15T21:49:10.654Z,1.00
2023-03-15T21:51:45.775Z,12.70
2023-03-15T21:54:13.831Z,73.40
2023-03-15T21:56:40.937Z,99.90
2023-03-15T21:59:10.188Z,99.90
2023-03-15T22:01:37.110Z,99.90
2023-03-15T22:04:06.983Z,99.90
2023-03-15T22:06:33.817Z,99.90
2023-03-15T22:09:00.741Z,1.00
2023-03-15T22:11:27.414Z,1.00
2023-03-15T22:13:54.029Z,1.00
2023-03-15T22:16:20.883Z,1.00
2023-03-15T22:18:47.626Z,1.00
2023-03-15T22:21:14.305Z,1.00
2023-03-15T22:23:40.992Z,74.00
2023-03-15T22:26:07.727Z,99.90
2023-03-15T22:28:35.306Z,99.90
2023-03-15T22:31:02.056Z,99.90
2023-03-15T22:33:29.064Z,99.90
2023-03-15T22:35:57.996Z,99.90
2023-03-15T22:38:25.905Z,99.90
2023-03-15T22:41:19.669Z,1.00
2023-03-15T22:43:46.513Z,1.00
2023-03-15T22:46:13.286Z,48.10
2023-03-15T22:48:40.114Z,55.10
2023-03-15T22:51:09.632Z,99.90
2023-03-15T22:53:38.458Z,99.90
2023-03-15T22:56:05.879Z,99.90
2023-03-15T22:58:35.054Z,99.90
2023-03-15T23:01:02.101Z,99.90
2023-03-15T23:03:29.076Z,99.90
2023-03-15T23:05:56.014Z,1.00
2023-03-15T23:08:23.016Z,33.80
2023-03-15T23:10:52.244Z,24.90
2023-03-15T23:13:19.021Z,1.00
2023-03-15T23:15:49.083Z,99.90
2023-03-15T23:18:16.125Z,99.90
2023-03-15T23:20:42.854Z,1.00
2023-03-15T23:23:12.472Z,1.00
2023-03-15T23:25:39.970Z,1.00
2023-03-15T23:28:07.513Z,1.00
2023-03-15T23:30:36.068Z,1.00
2023-03-15T23:33:03.679Z,71.40
2023-03-15T23:35:31.921Z,99.90
2023-03-15T23:37:58.777Z,99.90
2023-03-15T23:40:26.178Z,99.90
2023-03-15T23:42:58.744Z,99.90
2023-03-15T23:45:27.686Z,99.90
2023-03-15T23:47:54.393Z,99.90
2023-03-15T23:50:25.798Z,1.00
2023-03-15T23:52:53.645Z,1.00
2023-03-15T23:55:20.923Z,1.00
2023-03-15T23:57:48.058Z,86.50
